sensor_id;sensor_type;location;lat;lon;timestamp;temperature;humidity
12268;DHT22;6196;48.398;11.736;2023-04-15T00:01:35;5.60;99.90
12268;DHT22;6196;48.398;11.736;2023-04-15T00:04:09;5.50;99.90
12268;DHT22;6196;48.398;11.736;2023-04-15T00:06:36;5.50;99.90
12268;DHT22;6196;48.398;11.736;2023-04-15T00:09:05;5.50;99.90
12268;DHT22;6196;48.398;11.736;2023-04-15T00:11:31;5.60;99.90
12268;DHT22;6196;48.398;11.736;2023-04-15T00:13:59;5.50;99.90
12268;DHT22;6196;48.398;11.736;2023-04-15T00:16:26;5.60;99.90
12268;DHT22;6196;48.398;11.736;2023-04-15T00:18:53;5.60;99.90
12268;DHT22;6196;48.398;11.736;2023-04-15T00:21:21;5.60;99.90
12268;DHT22;6196;48.398;11.736;2023-04-15T00:23:47;5.60;99.90
12268;DHT22;6196;48.398;11.736;2023-04-15T00:26:18;5.60;99.90
12268;DHT22;6196;48.398;11.736;2023-04-15T00:28:45;5.60;99.90
12268;DHT22;6196;48.398;11.736;2023-04-15T00:31:12;5.60;99.90
12268;DHT22;6196;48.398;11.736;2023-04-15T00:33:39;5.70;99.90
12268;DHT22;6196;48.398;11.736;2023-04-15T00:36:06;5.70;99.90
12268;DHT22;6196;48.398;11.736;2023-04-15T00:38:35;5.70;99.90
12268;DHT22;6196;48.398;11.736;2023-04-15T00:41:02;5.70;99.90
12268;DHT22;6196;48.398;11.736;2023-04-15T00:43:29;5.80;99.90
12268;DHT22;6196;48.398;11.736;2023-04-15T00:45:57;5.70;99.90
12268;DHT22;6196;48.398;11.736;2023-04-15T00:48:25;5.80;99.90
12268;DHT22;6196;48.398;11.736;2023-04-15T00:50:53;5.80;99.90
12268;DHT22;6196;48.398;11.736;2023-04-15T00:53:20;5.80;99.90
12268;DHT22;6196;48.398;11.736;2023-04-15T00:55:47;5.80;99.90
12268;DHT22;6196;48.398;11.736;2023-04-15T00:58:14;5.80;99.90
12268;DHT22;6196;48.398;11.736;2023-04-15T01:00:42;5.80;99.90
12268;DHT22;6196;48.398;11.736;2023-04-15T01:03:09;5.80;99.90
12268;DHT22;6196;48.398;11.736;2023-04-15T01:05:37;5.90;99.90
12268;DHT22;6196;48.398;11.736;2023-04-15T01:08:05;5.90;99.90
12268;DHT22;6196;48.398;11.736;2023-04-15T01:10:32;5.90;99.90
12268;DHT22;6196;48.398;11.736;2023-04-15T01:12:59;5.90;99.90
12268;DHT22;6196;48.398;11.736;2023-04-15T01:15:26;5.90;99.90
12268;DHT22;6196;48.398;11.736;2023-04-15T01:17:53;5.90;99.90
12268;DHT22;6196;48.398;11.736;2023-04-15T01:20:20;5.90;99.90
12268;DHT22;6196;48.398;11.736;2023-04-15T01:22:48;5.90;99.90
12268;DHT22;6196;48.398;11.736;2023-04-15T01:25:18;5.90;99.90
12268;DHT22;6196;48.398;11.736;2023-04-15T01:27:45;5.90;99.90
12268;DHT22;6196;48.398;11.736;2023-04-15T01:30:13;5.90;99.90
12268;DHT22;6196;48.398;11.736;2023-04-15T01:32:39;5.90;99.90
12268;DHT22;6196;48.398;11.736;2023-04-15T01:35:07;5.90;99.90
12268;DHT22;6196;48.398;11.736;2023-04-15T01:37:34;5.90;99.90
12268;DHT22;6196;48.398;11.736;2023-04-15T01:40:02;5.80;99.90
12268;DHT22;6196;48.398;11.736;2023-04-15T01:42:30;5.80;99.90
12268;DHT22;6196;48.398;11.736;2023-04-15T01:44:56;5.80;99.90
12268;DHT22;6196;48.398;11.736;2023-04-15T01:47:23;5.80;99.90
12268;DHT22;6196;48.398;11.736;2023-04-15T01:49:50;5.80;99.90
12268;DHT22;6196;48.398;11.736;2023-04-15T01:52:17;5.80;99.90
12268;DHT22;6196;48.398;11.736;2023-04-15T01:54:44;5.80;99.90
12268;DHT22;6196;48.398;11.736;2023-04-15T01:57:11;5.80;99.90
12268;DHT22;6196;48.398;11.736;2023-04-15T01:59:38;5.80;99.90
12268;DHT22;6196;48.398;11.736;2023-04-15T02:02:05;5.80;99.90
12268;DHT22;6196;48.398;11.736;2023-04-15T02:04:32;5.80;99.90
12268;DHT22;6196;48.398;11.736;2023-04-15T02:06:59;5.80;99.90
12268;DHT22;6196;48.398;11.736;2023-04-15T02:09:27;5.70;99.90
12268;DHT22;6196;48.398;11.736;2023-04-15T02:11:54;5.80;99.90
12268;DHT22;6196;48.398;11.736;2023-04-15T02:14:20;5.70;99.90
12268;DHT22;6196;48.398;11.736;2023-04-15T02:16:47;5.70;99.90
12268;DHT22;6196;48.398;11.736;2023-04-15T02:19:14;5.70;99.90
12268;DHT22;6196;48.398;11.736;2023-04-15T02:21:41;5.70;99.90
12268;DHT22;6196;48.398;11.736;2023-04-15T02:24:08;5.70;99.90
12268;DHT22;6196;48.398;11.736;2023-04-15T02:26:35;5.70;99.90
12268;DHT22;6196;48.398;11.736;2023-04-15T02:29:02;5.70;99.90
12268;DHT22;6196;48.398;11.736;2023-04-15T02:31:29;5.80;99.90
12268;DHT22;6196;48.398;11.736;2023-04-15T02:33:56;5.80;99.90
12268;DHT22;6196;48.398;11.736;2023-04-15T02:36:23;5.80;99.90
12268;DHT22;6196;48.398;11.736;2023-04-15T02:38:49;5.80;99.90
12268;DHT22;6196;48.398;11.736;2023-04-15T02:41:16;5.80;99.90
12268;DHT22;6196;48.398;11.736;2023-04-15T02:43:44;5.80;99.90
12268;DHT22;6196;48.398;11.736;2023-04-15T02:46:11;5.80;99.90
12268;DHT22;6196;48.398;11.736;2023-04-15T02:48:40;5.80;99.90
12268;DHT22;6196;48.398;11.736;2023-04-15T02:51:18;5.80;99.90
12268;DHT22;6196;48.398;11.736;2023-04-15T02:53:47;5.80;99.90
12268;DHT22;6196;48.398;11.736;2023-04-15T02:56:14;5.80;99.90
12268;DHT22;6196;48.398;11.736;2023-04-15T02:58:43;5.80;99.90
12268;DHT22;6196;48.398;11.736;2023-04-15T03:01:11;5.80;99.90
12268;DHT22;6196;48.398;11.736;2023-04-15T03:03:38;5.80;99.90
12268;DHT22;6196;48.398;11.736;2023-04-15T03:06:05;5.80;99.90
12268;DHT22;6196;48.398;11.736;2023-04-15T03:08:32;5.80;99.90
12268;DHT22;6196;48.398;11.736;2023-04-15T03:10:59;5.80;99.90
12268;DHT22;6196;48.398;11.736;2023-04-15T03:13:27;5.80;99.90
12268;DHT22;6196;48.398;11.736;2023-04-15T03:15:54;5.80;99.90
12268;DHT22;6196;48.398;11.736;2023-04-15T03:18:21;5.80;99.90
12268;DHT22;6196;48.398;11.736;2023-04-15T03:20:49;5.90;99.90
12268;DHT22;6196;48.398;11.736;2023-04-15T03:23:16;5.90;99.90
12268;DHT22;6196;48.398;11.736;2023-04-15T03:25:44;5.90;99.90
12268;DHT22;6196;48.398;11.736;2023-04-15T03:28:11;5.80;99.90
12268;DHT22;6196;48.398;11.736;2023-04-15T03:30:38;5.90;99.90
12268;DHT22;6196;48.398;11.736;2023-04-15T03:33:05;5.80;99.90
12268;DHT22;6196;48.398;11.736;2023-04-15T03:35:32;5.80;99.90
12268;DHT22;6196;48.398;11.736;2023-04-15T03:37:59;5.80;99.90
12268;DHT22;6196;48.398;11.736;2023-04-15T03:40:26;5.80;99.90
12268;DHT22;6196;48.398;11.736;2023-04-15T03:42:53;5.80;99.90
12268;DHT22;6196;48.398;11.736;2023-04-15T03:45:20;5.80;99.90
12268;DHT22;6196;48.398;11.736;2023-04-15T03:47:47;5.80;99.90
12268;DHT22;6196;48.398;11.736;2023-04-15T03:50:15;5.80;99.90
12268;DHT22;6196;48.398;11.736;2023-04-15T03:52:42;5.70;99.90
12268;DHT22;6196;48.398;11.736;2023-04-15T03:55:09;5.70;99.90
12268;DHT22;6196;48.398;11.736;2023-04-15T03:57:36;5.70;99.90
12268;DHT22;6196;48.398;11.736;2023-04-15T04:00:05;5.70;99.90
12268;DHT22;6196;48.398;11.736;2023-04-15T04:02:33;5.70;99.90
12268;DHT22;6196;48.398;11.736;2023-04-15T04:05:00;5.60;99.90
12268;DHT22;6196;48.398;11.736;2023-04-15T04:07:27;5.60;99.90
12268;DHT22;6196;48.398;11.736;2023-04-15T04:09:56;5.50;99.90
12268;DHT22;6196;48.398;11.736;2023-04-15T04:12:23;5.60;99.90
12268;DHT22;6196;48.398;11.736;2023-04-15T04:14:50;5.60;99.90
12268;DHT22;6196;48.398;11.736;2023-04-15T04:17:17;5.60;99.90
12268;DHT22;6196;48.398;11.736;2023-04-15T04:19:44;5.50;99.90
12268;DHT22;6196;48.398;11.736;2023-04-15T04:22:11;5.50;99.90
12268;DHT22;6196;48.398;11.736;2023-04-15T04:24:38;5.60;99.90
12268;DHT22;6196;48.398;11.736;2023-04-15T04:27:05;5.60;99.90
12268;DHT22;6196;48.398;11.736;2023-04-15T04:29:31;5.60;99.90
12268;DHT22;6196;48.398;11.736;2023-04-15T04:31:58;5.60;99.90
12268;DHT22;6196;48.398;11.736;2023-04-15T04:34:25;5.50;99.90
12268;DHT22;6196;48.398;11.736;2023-04-15T04:36:52;5.50;99.90
12268;DHT22;6196;48.398;11.736;2023-04-15T04:39:19;5.50;99.90
12268;DHT22;6196;48.398;11.736;2023-04-15T04:41:46;5.50;99.90
12268;DHT22;6196;48.398;11.736;2023-04-15T04:44:13;5.50;99.90
12268;DHT22;6196;48.398;11.736;2023-04-15T04:46:39;5.50;99.90
12268;DHT22;6196;48.398;11.736;2023-04-15T04:49:06;5.50;99.90
12268;DHT22;6196;48.398;11.736;2023-04-15T04:51:33;5.50;99.90
12268;DHT22;6196;48.398;11.736;2023-04-15T04:54:00;5.60;99.90
12268;DHT22;6196;48.398;11.736;2023-04-15T04:56:29;5.60;99.90
12268;DHT22;6196;48.398;11.736;2023-04-15T04:58:56;5.60;99.90
12268;DHT22;6196;48.398;11.736;2023-04-15T05:01:23;5.60;99.90
12268;DHT22;6196;48.398;11.736;2023-04-15T05:03:50;5.70;99.90
12268;DHT22;6196;48.398;11.736;2023-04-15T05:06:17;5.70;99.90
12268;DHT22;6196;48.398;11.736;2023-04-15T05:08:44;5.80;99.90
12268;DHT22;6196;48.398;11.736;2023-04-15T05:11:12;5.80;99.90
12268;DHT22;6196;48.398;11.736;2023-04-15T05:13:39;5.80;99.90
12268;DHT22;6196;48.398;11.736;2023-04-15T05:16:06;5.90;99.90
12268;DHT22;6196;48.398;11.736;2023-04-15T05:18:34;5.90;99.90
12268;DHT22;6196;48.398;11.736;2023-04-15T05:21:01;6.00;99.90
12268;DHT22;6196;48.398;11.736;2023-04-15T05:23:28;6.00;99.90
12268;DHT22;6196;48.398;11.736;2023-04-15T05:25:55;6.10;99.90
12268;DHT22;6196;48.398;11.736;2023-04-15T05:28:22;6.10;99.90
12268;DHT22;6196;48.398;11.736;2023-04-15T05:30:48;6.10;99.90
12268;DHT22;6196;48.398;11.736;2023-04-15T05:33:16;6.20;99.90
12268;DHT22;6196;48.398;11.736;2023-04-15T05:35:43;6.20;99.90
12268;DHT22;6196;48.398;11.736;2023-04-15T05:38:09;6.30;99.90
12268;DHT22;6196;48.398;11.736;2023-04-15T05:40:36;6.30;99.90
12268;DHT22;6196;48.398;11.736;2023-04-15T05:43:03;6.40;99.90
12268;DHT22;6196;48.398;11.736;2023-04-15T05:45:30;6.40;99.90
12268;DHT22;6196;48.398;11.736;2023-04-15T05:47:57;6.50;99.90
12268;DHT22;6196;48.398;11.736;2023-04-15T05:50:24;6.50;99.90
12268;DHT22;6196;48.398;11.736;2023-04-15T05:52:51;6.60;99.90
12268;DHT22;6196;48.398;11.736;2023-04-15T05:55:18;6.60;99.90
12268;DHT22;6196;48.398;11.736;2023-04-15T05:57:45;6.60;99.90
12268;DHT22;6196;48.398;11.736;2023-04-15T06:00:12;6.60;99.90
12268;DHT22;6196;48.398;11.736;2023-04-15T06:02:40;6.60;99.90
12268;DHT22;6196;48.398;11.736;2023-04-15T06:05:08;6.60;99.90
12268;DHT22;6196;48.398;11.736;2023-04-15T06:07:37;6.70;99.90
12268;DHT22;6196;48.398;11.736;2023-04-15T06:10:04;6.90;99.90
12268;DHT22;6196;48.398;11.736;2023-04-15T06:12:33;7.00;99.90
12268;DHT22;6196;48.398;11.736;2023-04-15T06:15:01;7.20;99.90
12268;DHT22;6196;48.398;11.736;2023-04-15T06:17:27;7.30;99.90
12268;DHT22;6196;48.398;11.736;2023-04-15T06:19:54;7.30;99.90
12268;DHT22;6196;48.398;11.736;2023-04-15T06:22:22;7.40;99.90
12268;DHT22;6196;48.398;11.736;2023-04-15T06:24:49;7.40;99.90
12268;DHT22;6196;48.398;11.736;2023-04-15T06:27:17;7.40;99.90
12268;DHT22;6196;48.398;11.736;2023-04-15T06:29:44;7.40;99.90
12268;DHT22;6196;48.398;11.736;2023-04-15T06:32:11;7.30;99.90
12268;DHT22;6196;48.398;11.736;2023-04-15T06:34:38;7.40;99.90
12268;DHT22;6196;48.398;11.736;2023-04-15T06:37:05;7.40;99.90
12268;DHT22;6196;48.398;11.736;2023-04-15T06:39:32;7.60;99.90
12268;DHT22;6196;48.398;11.736;2023-04-15T06:41:59;7.80;99.90
12268;DHT22;6196;48.398;11.736;2023-04-15T06:44:27;7.80;99.90
12268;DHT22;6196;48.398;11.736;2023-04-15T06:46:54;7.90;99.90
12268;DHT22;6196;48.398;11.736;2023-04-15T06:49:22;8.10;99.90
12268;DHT22;6196;48.398;11.736;2023-04-15T06:51:49;8.20;99.90
12268;DHT22;6196;48.398;11.736;2023-04-15T06:54:16;8.10;99.90
12268;DHT22;6196;48.398;11.736;2023-04-15T06:56:43;8.20;99.90
12268;DHT22;6196;48.398;11.736;2023-04-15T06:59:11;8.20;99.90
12268;DHT22;6196;48.398;11.736;2023-04-15T07:01:41;8.30;99.90
12268;DHT22;6196;48.398;11.736;2023-04-15T07:04:08;8.30;99.90
12268;DHT22;6196;48.398;11.736;2023-04-15T07:06:35;8.50;99.90
12268;DHT22;6196;48.398;11.736;2023-04-15T07:09:02;8.60;99.90
12268;DHT22;6196;48.398;11.736;2023-04-15T07:11:31;8.40;99.90
12268;DHT22;6196;48.398;11.736;2023-04-15T07:13:58;8.50;99.90
12268;DHT22;6196;48.398;11.736;2023-04-15T07:16:24;8.60;99.90
12268;DHT22;6196;48.398;11.736;2023-04-15T07:18:55;8.80;99.90
12268;DHT22;6196;48.398;11.736;2023-04-15T07:21:24;8.90;99.90
12268;DHT22;6196;48.398;11.736;2023-04-15T07:23:51;9.10;99.90
12268;DHT22;6196;48.398;11.736;2023-04-15T07:26:18;8.90;99.90
12268;DHT22;6196;48.398;11.736;2023-04-15T07:28:44;9.10;99.90
12268;DHT22;6196;48.398;11.736;2023-04-15T07:31:12;9.00;99.90
12268;DHT22;6196;48.398;11.736;2023-04-15T07:33:40;9.10;99.90
12268;DHT22;6196;48.398;11.736;2023-04-15T07:36:07;9.00;99.90
12268;DHT22;6196;48.398;11.736;2023-04-15T07:38:34;8.80;99.90
12268;DHT22;6196;48.398;11.736;2023-04-15T07:41:01;8.90;99.90
12268;DHT22;6196;48.398;11.736;2023-04-15T07:43:28;8.90;99.90
12268;DHT22;6196;48.398;11.736;2023-04-15T07:45:55;9.00;99.90
12268;DHT22;6196;48.398;11.736;2023-04-15T07:48:22;9.10;99.90
12268;DHT22;6196;48.398;11.736;2023-04-15T07:50:49;9.10;99.90
12268;DHT22;6196;48.398;11.736;2023-04-15T07:53:16;9.10;99.90
12268;DHT22;6196;48.398;11.736;2023-04-15T07:55:43;9.00;99.90
12268;DHT22;6196;48.398;11.736;2023-04-15T07:58:09;9.10;99.90
12268;DHT22;6196;48.398;11.736;2023-04-15T08:00:37;9.10;99.90
12268;DHT22;6196;48.398;11.736;2023-04-15T08:03:04;9.30;99.90
12268;DHT22;6196;48.398;11.736;2023-04-15T08:05:31;9.20;99.90
12268;DHT22;6196;48.398;11.736;2023-04-15T08:07:58;9.10;99.90
12268;DHT22;6196;48.398;11.736;2023-04-15T08:10:25;9.30;99.90
12268;DHT22;6196;48.398;11.736;2023-04-15T08:12:53;9.30;99.90
12268;DHT22;6196;48.398;11.736;2023-04-15T08:15:20;9.40;99.90
12268;DHT22;6196;48.398;11.736;2023-04-15T08:17:47;9.50;99.90
12268;DHT22;6196;48.398;11.736;2023-04-15T08:20:14;9.40;99.90
12268;DHT22;6196;48.398;11.736;2023-04-15T08:22:41;9.50;99.90
12268;DHT22;6196;48.398;11.736;2023-04-15T08:25:08;9.60;99.90
12268;DHT22;6196;48.398;11.736;2023-04-15T08:27:35;9.70;99.90
12268;DHT22;6196;48.398;11.736;2023-04-15T08:30:03;9.70;99.90
12268;DHT22;6196;48.398;11.736;2023-04-15T08:32:30;9.70;99.90
12268;DHT22;6196;48.398;11.736;2023-04-15T08:34:57;9.60;99.90
12268;DHT22;6196;48.398;11.736;2023-04-15T08:37:24;9.70;99.90
12268;DHT22;6196;48.398;11.736;2023-04-15T08:39:52;9.80;99.90
12268;DHT22;6196;48.398;11.736;2023-04-15T08:42:26;9.90;99.90
12268;DHT22;6196;48.398;11.736;2023-04-15T08:45:04;9.70;99.90
12268;DHT22;6196;48.398;11.736;2023-04-15T08:47:32;9.60;99.90
12268;DHT22;6196;48.398;11.736;2023-04-15T08:50:02;9.90;99.90
12268;DHT22;6196;48.398;11.736;2023-04-15T08:52:30;10.20;99.90
12268;DHT22;6196;48.398;11.736;2023-04-15T08:54:59;10.30;99.90
12268;DHT22;6196;48.398;11.736;2023-04-15T08:57:28;10.50;99.90
12268;DHT22;6196;48.398;11.736;2023-04-15T08:59:56;10.60;99.90
12268;DHT22;6196;48.398;11.736;2023-04-15T09:02:24;10.50;99.90
12268;DHT22;6196;48.398;11.736;2023-04-15T09:04:53;10.30;99.90
12268;DHT22;6196;48.398;11.736;2023-04-15T09:07:20;10.30;99.90
12268;DHT22;6196;48.398;11.736;2023-04-15T09:09:47;10.20;99.90
12268;DHT22;6196;48.398;11.736;2023-04-15T09:12:14;10.20;99.90
12268;DHT22;6196;48.398;11.736;2023-04-15T09:14:45;10.40;99.90
12268;DHT22;6196;48.398;11.736;2023-04-15T09:17:12;10.50;99.90
12268;DHT22;6196;48.398;11.736;2023-04-15T09:19:44;10.50;99.90
12268;DHT22;6196;48.398;11.736;2023-04-15T09:22:11;10.20;99.90
12268;DHT22;6196;48.398;11.736;2023-04-15T09:24:39;10.10;99.90
12268;DHT22;6196;48.398;11.736;2023-04-15T09:27:07;10.10;99.90
12268;DHT22;6196;48.398;11.736;2023-04-15T09:29:34;10.20;99.90
12268;DHT22;6196;48.398;11.736;2023-04-15T09:32:10;10.20;99.90
12268;DHT22;6196;48.398;11.736;2023-04-15T09:34:40;10.20;99.90
12268;DHT22;6196;48.398;11.736;2023-04-15T09:37:07;10.20;99.90
12268;DHT22;6196;48.398;11.736;2023-04-15T09:39:50;10.20;99.90
12268;DHT22;6196;48.398;11.736;2023-04-15T09:42:18;10.10;99.90
12268;DHT22;6196;48.398;11.736;2023-04-15T09:44:52;10.10;99.90
12268;DHT22;6196;48.398;11.736;2023-04-15T09:47:29;10.20;99.90
12268;DHT22;6196;48.398;11.736;2023-04-15T09:49:59;10.30;99.90
12268;DHT22;6196;48.398;11.736;2023-04-15T09:52:27;10.30;99.90
12268;DHT22;6196;48.398;11.736;2023-04-15T09:54:57;10.20;99.90
12268;DHT22;6196;48.398;11.736;2023-04-15T09:57:24;10.10;99.90
12268;DHT22;6196;48.398;11.736;2023-04-15T09:59:59;10.10;99.90
12268;DHT22;6196;48.398;11.736;2023-04-15T10:02:27;10.20;99.90
12268;DHT22;6196;48.398;11.736;2023-04-15T10:04:56;10.10;99.90
12268;DHT22;6196;48.398;11.736;2023-04-15T10:07:24;10.10;99.90
12268;DHT22;6196;48.398;11.736;2023-04-15T10:09:52;10.10;99.90
12268;DHT22;6196;48.398;11.736;2023-04-15T10:12:19;10.00;99.90
12268;DHT22;6196;48.398;11.736;2023-04-15T10:14:54;9.80;99.90
12268;DHT22;6196;48.398;11.736;2023-04-15T10:17:23;9.60;99.90
12268;DHT22;6196;48.398;11.736;2023-04-15T10:19:53;9.70;99.90
12268;DHT22;6196;48.398;11.736;2023-04-15T10:22:22;9.80;99.90
12268;DHT22;6196;48.398;11.736;2023-04-15T10:24:50;9.50;99.90
12268;DHT22;6196;48.398;11.736;2023-04-15T10:27:18;9.40;99.90
12268;DHT22;6196;48.398;11.736;2023-04-15T10:29:47;9.30;99.90
12268;DHT22;6196;48.398;11.736;2023-04-15T10:32:18;9.50;99.90
12268;DHT22;6196;48.398;11.736;2023-04-15T10:34:48;9.70;99.90
12268;DHT22;6196;48.398;11.736;2023-04-15T10:37:22;9.90;99.90
12268;DHT22;6196;48.398;11.736;2023-04-15T10:40:00;9.80;99.90
12268;DHT22;6196;48.398;11.736;2023-04-15T10:42:33;9.90;99.90
12268;DHT22;6196;48.398;11.736;2023-04-15T10:45:00;10.00;99.90
12268;DHT22;6196;48.398;11.736;2023-04-15T10:47:27;9.90;99.90
12268;DHT22;6196;48.398;11.736;2023-04-15T10:49:59;10.00;99.90
12268;DHT22;6196;48.398;11.736;2023-04-15T10:52:28;9.80;99.90
12268;DHT22;6196;48.398;11.736;2023-04-15T10:55:17;9.80;99.90
12268;DHT22;6196;48.398;11.736;2023-04-15T10:57:51;9.80;99.90
12268;DHT22;6196;48.398;11.736;2023-04-15T11:00:23;9.80;99.90
12268;DHT22;6196;48.398;11.736;2023-04-15T11:08:15;9.90;99.90
12268;DHT22;6196;48.398;11.736;2023-04-15T11:13:15;9.70;99.90
12268;DHT22;6196;48.398;11.736;2023-04-15T11:15:45;9.70;99.90
12268;DHT22;6196;48.398;11.736;2023-04-15T11:18:24;9.80;99.90
12268;DHT22;6196;48.398;11.736;2023-04-15T11:20:55;9.80;99.90
12268;DHT22;6196;48.398;11.736;2023-04-15T11:23:47;9.90;99.90
12268;DHT22;6196;48.398;11.736;2023-04-15T11:26:15;9.80;99.90
12268;DHT22;6196;48.398;11.736;2023-04-15T11:28:43;9.70;99.90
12268;DHT22;6196;48.398;11.736;2023-04-15T11:31:16;9.60;99.90
12268;DHT22;6196;48.398;11.736;2023-04-15T11:33:56;9.60;99.90
12268;DHT22;6196;48.398;11.736;2023-04-15T11:36:26;9.50;99.90
12268;DHT22;6196;48.398;11.736;2023-04-15T11:38:54;9.40;99.90
12268;DHT22;6196;48.398;11.736;2023-04-15T11:41:23;9.40;99.90
12268;DHT22;6196;48.398;11.736;2023-04-15T11:43:51;9.40;99.90
12268;DHT22;6196;48.398;11.736;2023-04-15T11:46:18;9.40;99.90
12268;DHT22;6196;48.398;11.736;2023-04-15T11:48:46;9.50;99.90
12268;DHT22;6196;48.398;11.736;2023-04-15T11:51:13;9.50;99.90
12268;DHT22;6196;48.398;11.736;2023-04-15T11:53:46;9.40;99.90
12268;DHT22;6196;48.398;11.736;2023-04-15T11:56:22;9.40;99.90
12268;DHT22;6196;48.398;11.736;2023-04-15T11:58:53;9.30;99.90
12268;DHT22;6196;48.398;11.736;2023-04-15T12:03:59;9.10;99.90
12268;DHT22;6196;48.398;11.736;2023-04-15T12:06:31;9.20;99.90
12268;DHT22;6196;48.398;11.736;2023-04-15T12:09:10;9.20;99.90
12268;DHT22;6196;48.398;11.736;2023-04-15T12:11:50;9.20;99.90
12268;DHT22;6196;48.398;11.736;2023-04-15T12:14:26;9.20;99.90
12268;DHT22;6196;48.398;11.736;2023-04-15T12:17:01;9.20;99.90
12268;DHT22;6196;48.398;11.736;2023-04-15T12:22:15;9.30;99.90
12268;DHT22;6196;48.398;11.736;2023-04-15T12:24:43;9.30;99.90
12268;DHT22;6196;48.398;11.736;2023-04-15T12:27:15;9.30;99.90
12268;DHT22;6196;48.398;11.736;2023-04-15T12:29:42;9.30;99.90
12268;DHT22;6196;48.398;11.736;2023-04-15T12:32:13;9.50;99.90
12268;DHT22;6196;48.398;11.736;2023-04-15T12:34:45;9.50;99.90
12268;DHT22;6196;48.398;11.736;2023-04-15T12:37:15;9.50;99.90
12268;DHT22;6196;48.398;11.736;2023-04-15T12:39:47;9.60;99.90
12268;DHT22;6196;48.398;11.736;2023-04-15T12:42:15;9.90;99.90
12268;DHT22;6196;48.398;11.736;2023-04-15T12:44:43;9.80;99.90
12268;DHT22;6196;48.398;11.736;2023-04-15T12:47:10;9.70;99.90
12268;DHT22;6196;48.398;11.736;2023-04-15T12:49:38;9.80;99.90
12268;DHT22;6196;48.398;11.736;2023-04-15T12:52:05;9.90;99.90
12268;DHT22;6196;48.398;11.736;2023-04-15T12:54:32;10.20;99.90
12268;DHT22;6196;48.398;11.736;2023-04-15T12:57:00;10.60;99.90
12268;DHT22;6196;48.398;11.736;2023-04-15T12:59:32;10.80;99.90
12268;DHT22;6196;48.398;11.736;2023-04-15T13:01:59;10.90;99.90
12268;DHT22;6196;48.398;11.736;2023-04-15T13:04:26;10.70;99.90
12268;DHT22;6196;48.398;11.736;2023-04-15T13:06:56;10.70;99.90
12268;DHT22;6196;48.398;11.736;2023-04-15T13:09:23;11.10;99.90
12268;DHT22;6196;48.398;11.736;2023-04-15T13:11:50;11.40;99.90
12268;DHT22;6196;48.398;11.736;2023-04-15T13:14:18;11.40;99.90
12268;DHT22;6196;48.398;11.736;2023-04-15T13:16:45;11.50;99.90
12268;DHT22;6196;48.398;11.736;2023-04-15T13:19:12;11.40;99.90
12268;DHT22;6196;48.398;11.736;2023-04-15T13:21:40;11.30;99.90
12268;DHT22;6196;48.398;11.736;2023-04-15T13:24:07;11.20;99.90
12268;DHT22;6196;48.398;11.736;2023-04-15T13:26:35;11.00;99.90
12268;DHT22;6196;48.398;11.736;2023-04-15T13:29:01;11.00;99.90
12268;DHT22;6196;48.398;11.736;2023-04-15T13:31:28;11.00;99.90
12268;DHT22;6196;48.398;11.736;2023-04-15T13:33:56;11.20;99.90
12268;DHT22;6196;48.398;11.736;2023-04-15T13:36:23;11.30;99.90
12268;DHT22;6196;48.398;11.736;2023-04-15T13:38:50;11.50;99.90
12268;DHT22;6196;48.398;11.736;2023-04-15T13:41:17;11.40;99.90
12268;DHT22;6196;48.398;11.736;2023-04-15T13:43:45;11.50;99.90
12268;DHT22;6196;48.398;11.736;2023-04-15T13:46:12;11.60;99.90
12268;DHT22;6196;48.398;11.736;2023-04-15T13:48:40;11.70;99.90
12268;DHT22;6196;48.398;11.736;2023-04-15T13:51:07;11.50;99.90
12268;DHT22;6196;48.398;11.736;2023-04-15T13:53:34;11.50;99.90
12268;DHT22;6196;48.398;11.736;2023-04-15T13:56:08;11.50;99.90
12268;DHT22;6196;48.398;11.736;2023-04-15T13:58:36;11.80;99.90
12268;DHT22;6196;48.398;11.736;2023-04-15T14:01:04;11.50;99.90
12268;DHT22;6196;48.398;11.736;2023-04-15T14:03:34;11.20;99.90
12268;DHT22;6196;48.398;11.736;2023-04-15T14:06:02;11.00;99.90
12268;DHT22;6196;48.398;11.736;2023-04-15T14:08:30;10.60;99.90
12268;DHT22;6196;48.398;11.736;2023-04-15T14:10:57;10.50;99.90
12268;DHT22;6196;48.398;11.736;2023-04-15T14:13:24;10.40;99.90
12268;DHT22;6196;48.398;11.736;2023-04-15T14:15:51;10.30;99.90
12268;DHT22;6196;48.398;11.736;2023-04-15T14:18:19;10.20;99.90
12268;DHT22;6196;48.398;11.736;2023-04-15T14:20:46;10.20;99.90
12268;DHT22;6196;48.398;11.736;2023-04-15T14:23:13;10.10;99.90
12268;DHT22;6196;48.398;11.736;2023-04-15T14:25:40;9.90;99.90
12268;DHT22;6196;48.398;11.736;2023-04-15T14:28:07;9.80;99.90
12268;DHT22;6196;48.398;11.736;2023-04-15T14:30:34;9.60;99.90
12268;DHT22;6196;48.398;11.736;2023-04-15T14:33:01;9.50;99.90
12268;DHT22;6196;48.398;11.736;2023-04-15T14:35:28;9.40;99.90
12268;DHT22;6196;48.398;11.736;2023-04-15T14:37:55;9.50;99.90
12268;DHT22;6196;48.398;11.736;2023-04-15T14:40:22;9.40;99.90
12268;DHT22;6196;48.398;11.736;2023-04-15T14:42:50;9.30;99.90
12268;DHT22;6196;48.398;11.736;2023-04-15T14:45:17;9.40;99.90
12268;DHT22;6196;48.398;11.736;2023-04-15T14:47:44;9.30;99.90
12268;DHT22;6196;48.398;11.736;2023-04-15T14:50:11;9.30;99.90
12268;DHT22;6196;48.398;11.736;2023-04-15T14:52:38;9.40;99.90
12268;DHT22;6196;48.398;11.736;2023-04-15T14:55:09;9.20;99.90
12268;DHT22;6196;48.398;11.736;2023-04-15T14:57:40;9.20;99.90
12268;DHT22;6196;48.398;11.736;2023-04-15T15:00:09;9.10;99.90
12268;DHT22;6196;48.398;11.736;2023-04-15T15:02:40;9.10;99.90
12268;DHT22;6196;48.398;11.736;2023-04-15T15:05:09;9.00;99.90
12268;DHT22;6196;48.398;11.736;2023-04-15T15:07:37;8.80;99.90
12268;DHT22;6196;48.398;11.736;2023-04-15T15:10:06;8.80;99.90
12268;DHT22;6196;48.398;11.736;2023-04-15T15:12:33;8.80;99.90
12268;DHT22;6196;48.398;11.736;2023-04-15T15:15:03;8.80;99.90
12268;DHT22;6196;48.398;11.736;2023-04-15T15:17:41;8.70;99.90
12268;DHT22;6196;48.398;11.736;2023-04-15T15:20:08;8.60;99.90
12268;DHT22;6196;48.398;11.736;2023-04-15T15:22:35;8.70;99.90
12268;DHT22;6196;48.398;11.736;2023-04-15T15:25:03;8.60;99.90
12268;DHT22;6196;48.398;11.736;2023-04-15T15:27:30;8.50;99.90
12268;DHT22;6196;48.398;11.736;2023-04-15T15:29:57;8.50;99.90
12268;DHT22;6196;48.398;11.736;2023-04-15T15:32:24;8.40;99.90
12268;DHT22;6196;48.398;11.736;2023-04-15T15:34:51;8.30;99.90
12268;DHT22;6196;48.398;11.736;2023-04-15T15:37:18;8.30;99.90
12268;DHT22;6196;48.398;11.736;2023-04-15T15:39:46;8.30;99.90
12268;DHT22;6196;48.398;11.736;2023-04-15T15:42:13;8.30;99.90
12268;DHT22;6196;48.398;11.736;2023-04-15T15:44:40;8.20;99.90
12268;DHT22;6196;48.398;11.736;2023-04-15T15:47:07;8.20;99.90
12268;DHT22;6196;48.398;11.736;2023-04-15T15:49:34;8.20;99.90
12268;DHT22;6196;48.398;11.736;2023-04-15T15:52:01;8.10;99.90
12268;DHT22;6196;48.398;11.736;2023-04-15T15:54:28;8.00;99.90
12268;DHT22;6196;48.398;11.736;2023-04-15T15:56:55;8.00;99.90
12268;DHT22;6196;48.398;11.736;2023-04-15T15:59:23;8.00;99.90
12268;DHT22;6196;48.398;11.736;2023-04-15T16:01:51;8.00;99.90